Hlavní strana
METAR-TAF:

METAR-TAF

Letiště :

Letecká základna

Tafraoui, Alžírsko

zeměpisná šířka: 35-32-33N, zeměpisná délka: 000-31-56W, výška: 112 m

Aktuální stav počasí

Zpráva byla vytvořena před 4 hodinami a 43 minutami, v 11:00 UTC
Severoseverovýchodní vítr 4 kt
Teplota 17°C
Vlhkost vzduchu 63%
Tlak 1019 hPa
Viditelnost: 4000 m
Polojasno ve výšce 1000 ft
kouřmo

METAR: DAOL 281100Z 02004KT 4000 BR SCT010 17/10 Q1019

Čas: 16:43 (15:43 UTC)


TAF: chybějící

Stav a předpovědi počasí z více než 4 000 letišť (zprávy METAR a TAF).

Červené a žluté tečky na mapě představují dostupné meteorologické stanice.

Když kurzor umístíte na tečku, zobrazí se název stanice.

Pak kliknutím zobrazíte stav a předpověď počasí.

Chcete-li změnit mapu, kliknutím na zelené tlačítko se znaménkem +mapu přiblížíte, kliknutím na zelené tlačítko se znaménkem – mapu oddálíte a kliknutím na zelené šipky přejdete na sousední mapy.


METAR-TAF: